Latest Coastal Weather Observations for Sydney Airport

IDN60701

Issued at 7:31 pm EST Monday 25 May 2015 (issued every 10 minutes, with the page automatically refreshed every 10 minutes)

About coastal observations | Map of coastal stations | Coastal observations for NSW | Marine services | Other Formats
Station Details ID: 066037 Name: SYDNEY AIRPORT AMO Lat: -33.95 Lon: 151.17 Height: 6.0 m
Data from the previous 72 hours. | See also: Recent months at Sydney Airport
Date/Time
EST
Temp

°C
Wind Pressure Rain
since 9am
mm
Weather Cloud Vis
km
Sea
Height
m
Swell
Dir
 
Speed
knots
Gust
knots
hPa Trend Height
m
Period
s
Dir
25/07:00pm 15.4 WNW 6 9 1028.9 - 0.0 - - 10 - - - -
25/06:30pm 15.9 W 6 9 1028.7 - 0.0 - - 10 - - - -
25/06:00pm 16.1 W 4 5 1028.2 F 0.0 Fine Mostly cloudy 30 - - - -
25/05:30pm 17.2 NW 4 5 1028.2 - 0.0 - - 10 - - - -
25/05:00pm 17.7 NW 6 7 1028.5 - 0.0 - - 10 - - - -
25/04:30pm 18.0 NNW 5 6 1028.3 - 0.0 - - 10 - - - -
25/04:00pm 18.9 N 6 7 1028.3 - 0.0 - - 10 - - - -
25/03:30pm 19.0 NNW 5 6 1028.5 - 0.0 - - 10 - - - -
25/03:00pm 18.6 NNW 3 5 1028.4 F 0.0 Fine Mostly cloudy 25 - - - -
25/02:30pm 18.6 WNW 5 6 1028.5 - 0.0 - - 10 - - - -
25/02:00pm 18.8 W 5 6 1028.8 - 0.0 - - 10 - - - -
25/01:30pm 18.9 WNW 5 7 1028.8 - 0.0 - - 10 - - - -
25/01:00pm 17.5 NW 6 7 1029.1 - 0.0 - - 10 - - - -
25/12:30pm 18.2 NW 6 9 1029.4 - 0.0 - - 10 - - - -
25/12:00pm 17.5 NW 7 9 1029.9 F 0.0 Haze Mostly cloudy 25 - - - -
25/11:30am 17.3 NW 6 7 1030.6 - 0.0 - - 10 - - - -
25/11:00am 16.6 NW 7 9 1031.4 - 0.0 - - 10 - - - -
25/10:30am 16.6 NW 7 10 1031.6 - 0.0 - - 10 - - - -
25/10:00am 16.2 NW 8 13 1032.0 - 0.0 - - 10 - - - -
25/09:30am 14.9 NW 8 10 1032.2 - 0.0 - - 10 - - - -
25/09:00am 14.2 NNW 8 9 1032.0 F 0.0 Haze Mostly cloudy 15 - - - -
25/08:30am 13.0 N 6 7 1031.9 - 0.0 - - 10 - - - -
25/08:00am 11.5 NNW 7 9 1032.0 - 0.0 - - 10 - - - -
25/07:30am 11.1 NNW 6 8 1031.7 - 0.0 - - 10 - - - -
25/07:00am 10.9 NNW 8 10 1031.8 - 0.0 - - 10 - - - -
25/06:30am 10.4 NW 8 12 1031.6 - 0.0 - - 10 - - - -
25/06:00am 10.3 NW 8 10 1031.5 F 0.0 Haze Mostly cloudy 20 - - - -
25/05:30am 10.1 NW 8 9 1031.3 - 0.0 - - 10 - - - -
25/05:00am 9.7 NNW 7 9 1031.0 - 0.0 - - 10 - - - -
25/04:30am 9.6 NNW 7 8 1031.2 - 0.0 - - 10 - - - -
25/03:30am 9.5 NNW 5 6 1031.2 - 0.0 - - 10 - - - -
25/03:00am 9.6 NNW 7 8 1031.6 R 0.0 Haze Partly cloudy 25 - - - -
25/02:30am 9.5 NW 8 9 1031.7 - 0.0 - - 10 - - - -
25/02:00am 9.5 NNW 6 7 1031.6 - 0.0 - - 10 - - - -
25/01:00am 10.5 N 6 7 1031.6 - 0.0 - - 10 - - - -
 
Date/Time
EST
Temp

°C
Wind Pressure Rain
since 9am
mm
Weather Cloud Vis
km
Sea
Height
m
Swell
Dir
 
Speed
knots
Gust
knots
hPa Trend Height
m
Period
s
Dir
24/11:30pm 11.9 W 7 9 1032.3 - 0.0 - - 10 - - - -
24/11:00pm 12.3 WNW 7 9 1032.3 - 0.0 - - 10 - - - -
24/10:30pm 12.7 NW 6 10 1032.1 - 0.0 - - 10 - - - -
24/10:00pm 13.5 N 3 5 1032.3 - 0.0 - - 10 - - - -
24/09:30pm 13.3 NNW 5 6 1032.3 - 0.0 - - 10 - - - -
24/09:00pm 13.3 W 4 5 1032.2 F 0.0 Haze Partly cloudy 20 - - - -
24/08:30pm 13.0 WSW 5 6 1032.1 - 0.0 - - 10 - - - -
24/08:00pm 14.6 WSW 4 6 1032.0 - 0.0 - - 10 - - - -
24/07:30pm 15.7 CALM 0 0 1031.7 - 0.0 - - 10 - - - -
24/07:00pm 16.5 ENE 5 6 1031.7 - 0.0 - Mostly clear 10 - - - -
24/06:30pm 15.6 CALM 0 0 1031.6 - 0.0 - Mostly clear 10 - - - -
24/06:00pm 15.8 CALM 0 0 1031.6 R 0.0 Fine Mostly clear 30 - - - -
24/05:30pm 16.1 SE 3 4 1031.4 - 0.0 - - 10 - - - -
24/05:00pm 16.1 ESE 4 4 1031.0 - 0.0 - Mostly clear 10 - - - -
24/04:30pm 16.8 SSE 4 5 1030.9 - 0.0 - Mostly clear 10 - - - -
24/04:00pm 17.3 SSE 6 7 1030.7 - 0.0 - Mostly clear 10 - - - -
24/03:30pm 17.4 S 6 8 1030.6 - 0.0 - Mostly clear 10 - - - -
24/03:00pm 17.7 SSE 6 8 1030.7 R 0.0 Fine Mostly clear 30 - - - -
24/02:30pm 17.7 S 6 7 1030.7 - 0.0 - Mostly clear 10 - - - -
24/02:00pm 17.8 SSE 7 8 1030.5 - 0.0 - Mostly clear 10 - - - -
24/01:30pm 17.4 SSE 8 9 1030.5 - 0.0 - Mostly clear 10 - - - -
24/01:00pm 17.5 SSE 8 10 1030.7 - 0.0 - Mostly clear 10 - - - -
24/12:30pm 17.7 S 8 9 1030.9 - 0.0 - Mostly clear 10 - - - -
24/12:00pm 17.6 SSW 8 10 1031.3 R 0.0 Fine Mostly clear 30 - - - -
24/11:30am 16.8 WSW 5 8 1031.8 - 0.0 - Mostly clear 10 - - - -
24/11:00am 18.6 WNW 6 9 1032.0 - 0.0 - Mostly clear 10 - - - -
24/10:30am 16.4 W 8 12 1032.3 - 0.0 - Mostly clear 10 - - - -
24/10:00am 15.2 W 8 10 1032.6 - 0.0 - Mostly clear 10 - - - -
24/09:30am 13.0 NW 5 6 1032.4 - 0.0 - Mostly clear 10 - - - -
24/09:00am 11.2 NW 8 11 1032.3 R 0.0 Fine Partly cloudy 30 - - - -
24/08:30am 9.6 WNW 7 10 1032.1 - 0.0 - Mostly clear 10 - - - -
24/08:00am 9.6 NW 8 11 1031.6 - 0.0 - Mostly clear 10 - - - -
24/07:30am 9.4 NW 8 12 1031.5 - 0.0 - Cloudy 10 - - - -
24/07:00am 8.8 NNW 8 9 1031.0 - 0.0 - Partly cloudy 10 - - - -
24/06:30am 8.4 NW 8 10 1031.0 - 0.0 - Mostly clear 10 - - - -
24/06:00am 8.3 NW 9 10 1030.7 R 0.0 Fine Mostly clear 30 - - - -
24/05:30am 8.7 WNW 7 9 1030.5 - 0.0 - Partly cloudy 10 - - - -
24/05:00am 8.3 NW 8 9 1030.2 - 0.0 - - 10 - - - -
24/04:30am 8.3 NNW 8 9 1030.0 - 0.0 - - 10 - - - -
24/04:00am 8.7 NNW 6 7 1029.8 - 0.0 - - 10 - - - -
24/03:30am 8.7 NW 8 10 1029.7 - 0.0 - - 10 - - - -
24/03:00am 8.8 NW 7 8 1029.7 R 0.0 Fine Clear 30 - - - -
24/02:30am 9.0 NW 8 10 1029.7 - 0.0 - - 10 - - - -
24/02:00am 9.4 NNW 9 10 1029.7 - 0.0 - - 10 - - - -
24/01:30am 10.3 NNW 7 8 1029.7 - 0.0 - - 10 - - - -
24/01:00am 10.7 NNW 7 8 1029.7 - 0.0 - - 10 - - - -
24/12:30am 10.9 NW 8 9 1029.7 - 0.0 - - 10 - - - -
24/12:00am 11.0 NNW 7 8 1029.7 R 0.0 Haze Clear 20 - - - -
 
Date/Time
EST
Temp

°C
Wind Pressure Rain
since 9am
mm
Weather Cloud Vis
km
Sea
Height
m
Swell
Dir
 
Speed
knots
Gust
knots
hPa Trend Height
m
Period
s
Dir
23/11:30pm 11.4 NNW 7 8 1029.7 - 0.0 - - 10 - - - -
23/11:00pm 11.8 NW 8 10 1029.7 - 0.0 - - 10 - - - -
23/10:30pm 12.9 W 8 9 1029.6 - 0.0 - - 10 - - - -
23/10:00pm 12.5 SW 9 10 1029.6 - 0.0 - - 10 - - - -
23/09:30pm 12.9 SW 9 26 1029.7 - 0.0 - - 10 - - - -
23/09:00pm 13.2 SW 10 11 1029.7 F 0.0 Haze Clear 20 - - - -
23/08:30pm 13.4 SW 8 10 1029.7 - 0.0 - - 10 - - - -
23/08:00pm 13.9 SW 8 10 1029.6 - 0.0 - - 10 - - - -
23/07:30pm 14.6 SSW 8 11 1029.4 - 0.0 - - 10 - - - -
23/07:00pm 14.8 S 10 17 1029.3 - 0.0 - - 10 - - - -
23/06:30pm 15.3 S 10 14 1029.2 - 0.0 - - 10 - - - -
23/06:00pm 15.4 S 10 20 1029.1 R 0.0 Fine Mostly clear 30 - - - -
23/05:30pm 15.4 S 12 15 1028.8 - 0.0 - Mostly clear 10 - - - -
23/05:00pm 15.6 S 11 15 1028.7 - 0.0 - Mostly clear 10 - - - -
23/04:30pm 15.8 SSW 11 14 1028.7 - 0.0 - Mostly clear 10 - - - -
23/04:00pm 16.2 SSW 14 17 1028.5 - 0.0 - Mostly clear 10 - - - -
23/03:30pm 16.4 SSW 15 20 1028.4 - 0.0 - Mostly clear 10 - - - -
23/03:00pm 16.8 SSW 14 17 1028.1 R 0.0 Fine Partly cloudy 30 - - - -
23/02:30pm 16.9 SSW 16 20 1028.1 - 0.0 - Mostly clear 10 - - - -
23/02:00pm 16.6 SSW 18 22 1028.0 - 0.0 - Mostly clear 10 - - - -
23/01:30pm 16.8 SSW 17 21 1028.0 - 0.0 - Mostly clear 10 - - - -
23/01:00pm 16.6 SSW 17 21 1028.1 - 0.0 - Mostly clear 10 - - - -
23/12:30pm 16.7 SSW 16 20 1028.1 - 0.0 - Mostly clear 10 - - - -
23/12:00pm 16.4 SSW 17 21 1028.2 R 0.0 Fine Partly cloudy 30 - - - -
23/11:30am 16.3 SSW 18 24 1028.5 - 0.0 - Mostly clear 10 - - - -
23/11:00am 16.2 SSW 17 21 1028.9 - 0.0 - Mostly clear 10 - - - -
23/10:30am 16.0 SW 11 16 1029.1 - 0.0 - Mostly clear 10 - - - -
23/10:00am 15.2 WSW 11 14 1029.2 - 0.0 - Mostly clear 10 - - - -
23/09:30am 14.3 WSW 14 17 1029.1 - 0.0 - Mostly clear 10 - - - -
23/09:00am 13.1 WSW 12 15 1029.0 R 17.2 Fine Partly cloudy 30 - - - -
23/08:30am 12.3 W 13 16 1028.9 - 17.2 - Mostly clear 10 - - - -
23/08:00am 11.9 WSW 13 17 1028.5 - 17.2 - Mostly clear 10 - - - -
23/07:30am 12.0 WSW 14 16 1028.2 - 17.2 - Mostly clear 10 - - - -
23/07:00am 11.9 WSW 14 17 1027.9 - 17.2 - Mostly clear 10 - - - -
23/06:30am 11.8 WSW 12 23 1027.5 - 17.2 - Mostly clear 10 - - - -
23/06:00am 13.7 SW 19 24 1026.8 F 17.2 Fine Mostly cloudy 25 - - - -
23/05:30am 13.6 SSW 19 24 1026.4 - 17.0 - Mostly clear 10 - - - -
23/05:00am 13.4 SSW 19 24 1026.1 - 17.0 - Mostly clear 10 - - - -
23/04:30am 12.2 SSW 17 22 1026.2 - 17.0 - Mostly clear 10 - - - -
23/04:00am 12.0 WSW 9 13 1026.3 - 17.0 - Mostly clear 10 - - - -
23/03:30am 11.9 WSW 12 16 1026.3 - 17.0 - Mostly clear 10 - - - -
23/03:00am 11.8 SW 14 17 1026.4 R 17.0 Showers Mostly cloudy 20 - - - -
23/02:30am 12.1 SW 17 21 1026.6 - 16.8 Showers Mostly clear 6 - - - -
23/02:00am 12.0 SW 18 22 1026.5 - 16.6 - Mostly clear 7 - - - -
23/01:30am 12.4 SW 16 20 1026.6 - 15.4 Showers Mostly clear 7 - - - -
23/01:00am 12.7 SW 16 19 1026.4 - 14.0 - Mostly clear 5 - - - -
23/12:51am 12.8 SW 17 21 1026.3 - 12.8 Showers Mostly clear 5 - - - -
23/12:30am 13.4 SW 19 26 1026.0 - 11.6 Showers Mostly clear 7 - - - -
23/12:23am 13.1 SW 18 26 1026.1 - 11.4 Showers Mostly clear 7 - - - -
23/12:00am 12.5 SW 15 21 1026.2 R 11.2 Showers Mostly cloudy 9 - - - -
 
Date/Time
EST
Temp

°C
Wind Pressure Rain
since 9am
mm
Weather Cloud Vis
km
Sea
Height
m
Swell
Dir
 
Speed
knots
Gust
knots
hPa Trend Height
m
Period
s
Dir
22/11:30pm 12.3 WSW 13 18 1026.3 - 10.2 Showers Mostly clear 9 - - - -
22/11:17pm 12.6 WSW 9 15 1026.4 - 10.2 Showers Mostly clear 8 - - - -
22/11:00pm 12.4 W 12 15 1026.2 - 10.0 - Mostly clear 10 - - - -
22/10:30pm 12.6 WSW 13 19 1026.1 - 10.0 Showers Mostly clear 10 - - - -
22/10:00pm 13.5 SSW 15 25 1025.7 - 9.8 - Mostly clear 7 - - - -
22/09:30pm 13.7 SSW 21 26 1025.5 - 9.8 Showers Mostly clear 9 - - - -
22/09:00pm 14.1 SSW 22 30 1025.4 R 9.8 Distant precip. Mostly cloudy 20 - - - -
22/08:41pm 14.1 SSW 14 25 1025.1 - 9.8 - Mostly clear 10 - - - -
22/08:30pm 13.5 WSW 18 24 1025.3 - 9.8 - Mostly clear 10 - - - -
22/08:09pm 14.0 S 23 32 1025.1 - 9.8 - Mostly clear 10 - - - -
22/08:00pm 14.8 S 20 28 1024.9 - 9.8 - Mostly clear 10 - - - -
22/07:56pm 15.3 SSW 17 26 1024.8 - 9.8 - Mostly clear 10 - - - -

Other Formats:

Comma delimited format used in spreadsheet applications
http://www.bom.gov.au/fwo/IDN60701/IDN60701.94767.axf

JavaScript Object Notation format (JSON) in row-major order
http://www.bom.gov.au/fwo/IDN60701/IDN60701.94767.json